sensor_id;sensor_type;location;lat;lon;timestamp;P1;durP1;ratioP1;P2;durP2;ratioP2
76065;SDS011;64763;48.928;8.474;2023-10-13T00:00:32;12.50;;;4.03;;
76065;SDS011;64763;48.928;8.474;2023-10-13T00:03:05;5.88;;;3.40;;
76065;SDS011;64763;48.928;8.474;2023-10-13T00:05:32;5.70;;;2.95;;
76065;SDS011;64763;48.928;8.474;2023-10-13T00:07:58;5.68;;;2.97;;
76065;SDS011;64763;48.928;8.474;2023-10-13T00:10:26;9.40;;;3.10;;
76065;SDS011;64763;48.928;8.474;2023-10-13T00:12:55;5.55;;;3.28;;
76065;SDS011;64763;48.928;8.474;2023-10-13T00:15:31;7.78;;;3.17;;
76065;SDS011;64763;48.928;8.474;2023-10-13T00:18:03;6.28;;;3.05;;
76065;SDS011;64763;48.928;8.474;2023-10-13T00:20:37;6.40;;;3.40;;
76065;SDS011;64763;48.928;8.474;2023-10-13T00:23:03;8.77;;;3.70;;
76065;SDS011;64763;48.928;8.474;2023-10-13T00:25:29;12.88;;;3.63;;
76065;SDS011;64763;48.928;8.474;2023-10-13T00:28:08;6.03;;;3.35;;
76065;SDS011;64763;48.928;8.474;2023-10-13T00:30:34;7.40;;;3.30;;
76065;SDS011;64763;48.928;8.474;2023-10-13T00:32:59;8.13;;;3.42;;
76065;SDS011;64763;48.928;8.474;2023-10-13T00:35:25;6.47;;;3.35;;
76065;SDS011;64763;48.928;8.474;2023-10-13T00:38:00;5.57;;;3.17;;
76065;SDS011;64763;48.928;8.474;2023-10-13T00:40:32;7.25;;;3.08;;
76065;SDS011;64763;48.928;8.474;2023-10-13T00:42:58;7.82;;;3.13;;
76065;SDS011;64763;48.928;8.474;2023-10-13T00:45:59;7.80;;;3.17;;
76065;SDS011;64763;48.928;8.474;2023-10-13T00:48:36;7.57;;;3.53;;
76065;SDS011;64763;48.928;8.474;2023-10-13T00:51:19;7.63;;;3.17;;
76065;SDS011;64763;48.928;8.474;2023-10-13T00:53:58;9.05;;;4.05;;
76065;SDS011;64763;48.928;8.474;2023-10-13T00:56:25;7.47;;;3.05;;
76065;SDS011;64763;48.928;8.474;2023-10-13T00:58:55;7.55;;;3.53;;
76065;SDS011;64763;48.928;8.474;2023-10-13T01:01:23;9.10;;;3.50;;
76065;SDS011;64763;48.928;8.474;2023-10-13T01:03:54;7.28;;;3.63;;
76065;SDS011;64763;48.928;8.474;2023-10-13T01:06:23;6.55;;;3.05;;
76065;SDS011;64763;48.928;8.474;2023-10-13T01:08:59;5.82;;;2.83;;
76065;SDS011;64763;48.928;8.474;2023-10-13T01:11:36;7.90;;;3.25;;
76065;SDS011;64763;48.928;8.474;2023-10-13T01:14:10;6.97;;;3.30;;
76065;SDS011;64763;48.928;8.474;2023-10-13T01:16:36;6.63;;;3.15;;
76065;SDS011;64763;48.928;8.474;2023-10-13T01:19:08;8.10;;;3.53;;
76065;SDS011;64763;48.928;8.474;2023-10-13T01:21:36;11.55;;;3.83;;
76065;SDS011;64763;48.928;8.474;2023-10-13T01:24:05;6.30;;;3.28;;
76065;SDS011;64763;48.928;8.474;2023-10-13T01:26:32;7.85;;;3.28;;
76065;SDS011;64763;48.928;8.474;2023-10-13T01:29:04;7.07;;;3.33;;
76065;SDS011;64763;48.928;8.474;2023-10-13T01:31:42;6.32;;;3.15;;
76065;SDS011;64763;48.928;8.474;2023-10-13T01:34:14;8.73;;;3.40;;
76065;SDS011;64763;48.928;8.474;2023-10-13T01:36:46;7.40;;;2.97;;
76065;SDS011;64763;48.928;8.474;2023-10-13T01:39:25;7.30;;;3.08;;
76065;SDS011;64763;48.928;8.474;2023-10-13T01:41:54;9.18;;;3.55;;
76065;SDS011;64763;48.928;8.474;2023-10-13T01:44:25;6.72;;;3.10;;
76065;SDS011;64763;48.928;8.474;2023-10-13T01:46:57;7.43;;;3.10;;
76065;SDS011;64763;48.928;8.474;2023-10-13T01:49:31;9.38;;;3.17;;
76065;SDS011;64763;48.928;8.474;2023-10-13T01:52:06;11.23;;;3.22;;
76065;SDS011;64763;48.928;8.474;2023-10-13T01:54:33;10.60;;;3.35;;
76065;SDS011;64763;48.928;8.474;2023-10-13T01:56:58;8.55;;;3.58;;
76065;SDS011;64763;48.928;8.474;2023-10-13T01:59:24;4.55;;;2.80;;
76065;SDS011;64763;48.928;8.474;2023-10-13T02:01:51;9.00;;;3.15;;
76065;SDS011;64763;48.928;8.474;2023-10-13T02:04:20;6.50;;;3.10;;
76065;SDS011;64763;48.928;8.474;2023-10-13T02:06:46;5.35;;;2.95;;
76065;SDS011;64763;48.928;8.474;2023-10-13T02:09:11;7.00;;;3.30;;
76065;SDS011;64763;48.928;8.474;2023-10-13T02:11:51;8.98;;;3.38;;
76065;SDS011;64763;48.928;8.474;2023-10-13T02:14:19;7.70;;;3.55;;
76065;SDS011;64763;48.928;8.474;2023-10-13T02:16:47;5.60;;;3.33;;
76065;SDS011;64763;48.928;8.474;2023-10-13T02:19:15;7.18;;;3.22;;
76065;SDS011;64763;48.928;8.474;2023-10-13T02:21:41;7.40;;;3.28;;
76065;SDS011;64763;48.928;8.474;2023-10-13T02:24:10;9.73;;;3.60;;
76065;SDS011;64763;48.928;8.474;2023-10-13T02:26:39;7.35;;;3.33;;
76065;SDS011;64763;48.928;8.474;2023-10-13T02:29:05;9.20;;;3.88;;
76065;SDS011;64763;48.928;8.474;2023-10-13T02:31:36;10.07;;;4.05;;
76065;SDS011;64763;48.928;8.474;2023-10-13T02:34:02;7.80;;;3.08;;
76065;SDS011;64763;48.928;8.474;2023-10-13T02:36:33;8.15;;;2.83;;
76065;SDS011;64763;48.928;8.474;2023-10-13T02:39:02;8.85;;;3.40;;
76065;SDS011;64763;48.928;8.474;2023-10-13T02:41:34;5.95;;;3.22;;
76065;SDS011;64763;48.928;8.474;2023-10-13T02:44:03;8.73;;;3.90;;
76065;SDS011;64763;48.928;8.474;2023-10-13T02:46:41;8.60;;;4.20;;
76065;SDS011;64763;48.928;8.474;2023-10-13T02:49:06;6.63;;;3.22;;
76065;SDS011;64763;48.928;8.474;2023-10-13T02:51:36;13.55;;;3.63;;
76065;SDS011;64763;48.928;8.474;2023-10-13T02:54:02;10.23;;;3.95;;
76065;SDS011;64763;48.928;8.474;2023-10-13T02:56:37;7.53;;;3.22;;
76065;SDS011;64763;48.928;8.474;2023-10-13T02:59:13;8.35;;;3.03;;
76065;SDS011;64763;48.928;8.474;2023-10-13T03:01:39;5.97;;;3.20;;
76065;SDS011;64763;48.928;8.474;2023-10-13T03:04:04;7.60;;;3.63;;
76065;SDS011;64763;48.928;8.474;2023-10-13T03:06:33;5.57;;;2.90;;
76065;SDS011;64763;48.928;8.474;2023-10-13T03:09:03;6.40;;;3.05;;
76065;SDS011;64763;48.928;8.474;2023-10-13T03:14:14;5.60;;;3.08;;
76065;SDS011;64763;48.928;8.474;2023-10-13T03:16:51;8.30;;;3.50;;
76065;SDS011;64763;48.928;8.474;2023-10-13T03:19:19;10.55;;;3.53;;
76065;SDS011;64763;48.928;8.474;2023-10-13T03:21:45;6.22;;;2.67;;
76065;SDS011;64763;48.928;8.474;2023-10-13T03:24:19;7.55;;;3.40;;
76065;SDS011;64763;48.928;8.474;2023-10-13T03:26:48;4.53;;;3.15;;
76065;SDS011;64763;48.928;8.474;2023-10-13T03:29:17;7.10;;;3.45;;
76065;SDS011;64763;48.928;8.474;2023-10-13T03:31:46;6.85;;;3.22;;
76065;SDS011;64763;48.928;8.474;2023-10-13T03:34:20;9.00;;;3.85;;
76065;SDS011;64763;48.928;8.474;2023-10-13T03:36:45;7.88;;;3.38;;
76065;SDS011;64763;48.928;8.474;2023-10-13T03:39:23;8.57;;;4.18;;
76065;SDS011;64763;48.928;8.474;2023-10-13T03:41:53;8.05;;;3.30;;
76065;SDS011;64763;48.928;8.474;2023-10-13T03:44:19;12.02;;;3.30;;
76065;SDS011;64763;48.928;8.474;2023-10-13T03:46:45;6.90;;;3.50;;
76065;SDS011;64763;48.928;8.474;2023-10-13T03:49:13;9.43;;;3.10;;
76065;SDS011;64763;48.928;8.474;2023-10-13T03:51:41;6.68;;;3.83;;
76065;SDS011;64763;48.928;8.474;2023-10-13T03:54:06;9.05;;;3.67;;
76065;SDS011;64763;48.928;8.474;2023-10-13T03:56:35;7.32;;;3.65;;
76065;SDS011;64763;48.928;8.474;2023-10-13T03:59:04;5.75;;;3.33;;
76065;SDS011;64763;48.928;8.474;2023-10-13T04:01:42;9.23;;;3.70;;
76065;SDS011;64763;48.928;8.474;2023-10-13T04:04:15;8.98;;;3.75;;
76065;SDS011;64763;48.928;8.474;2023-10-13T04:06:54;8.95;;;4.65;;
76065;SDS011;64763;48.928;8.474;2023-10-13T04:09:39;6.18;;;3.65;;
76065;SDS011;64763;48.928;8.474;2023-10-13T04:12:05;8.40;;;3.40;;
76065;SDS011;64763;48.928;8.474;2023-10-13T04:14:38;6.78;;;3.45;;
76065;SDS011;64763;48.928;8.474;2023-10-13T04:17:22;8.00;;;3.63;;
76065;SDS011;64763;48.928;8.474;2023-10-13T04:19:49;9.52;;;4.03;;
76065;SDS011;64763;48.928;8.474;2023-10-13T04:22:30;7.00;;;3.45;;
76065;SDS011;64763;48.928;8.474;2023-10-13T04:25:18;8.95;;;3.67;;
76065;SDS011;64763;48.928;8.474;2023-10-13T04:28:02;7.03;;;3.70;;
76065;SDS011;64763;48.928;8.474;2023-10-13T04:33:26;9.07;;;3.60;;
76065;SDS011;64763;48.928;8.474;2023-10-13T04:36:05;11.32;;;4.00;;
76065;SDS011;64763;48.928;8.474;2023-10-13T04:38:50;7.22;;;3.55;;
76065;SDS011;64763;48.928;8.474;2023-10-13T04:41:24;6.38;;;3.60;;
76065;SDS011;64763;48.928;8.474;2023-10-13T04:43:50;8.73;;;3.88;;
76065;SDS011;64763;48.928;8.474;2023-10-13T04:46:22;8.63;;;3.78;;
76065;SDS011;64763;48.928;8.474;2023-10-13T04:49:01;9.05;;;3.67;;
76065;SDS011;64763;48.928;8.474;2023-10-13T04:51:35;8.02;;;4.20;;
76065;SDS011;64763;48.928;8.474;2023-10-13T04:54:23;6.47;;;3.80;;
76065;SDS011;64763;48.928;8.474;2023-10-13T04:56:59;9.45;;;4.43;;
76065;SDS011;64763;48.928;8.474;2023-10-13T04:59:44;6.05;;;3.75;;
76065;SDS011;64763;48.928;8.474;2023-10-13T05:05:05;8.10;;;3.83;;
76065;SDS011;64763;48.928;8.474;2023-10-13T05:07:38;9.50;;;3.80;;
76065;SDS011;64763;48.928;8.474;2023-10-13T05:10:22;8.60;;;3.78;;
76065;SDS011;64763;48.928;8.474;2023-10-13T05:13:07;7.57;;;3.97;;
76065;SDS011;64763;48.928;8.474;2023-10-13T05:15:51;11.90;;;4.22;;
76065;SDS011;64763;48.928;8.474;2023-10-13T05:21:18;7.13;;;3.58;;
76065;SDS011;64763;48.928;8.474;2023-10-13T05:26:47;9.02;;;3.47;;
76065;SDS011;64763;48.928;8.474;2023-10-13T05:32:15;7.90;;;3.58;;
76065;SDS011;64763;48.928;8.474;2023-10-13T05:37:43;9.65;;;4.22;;
76065;SDS011;64763;48.928;8.474;2023-10-13T05:40:27;9.40;;;3.45;;
76065;SDS011;64763;48.928;8.474;2023-10-13T05:43:11;11.07;;;4.07;;
76065;SDS011;64763;48.928;8.474;2023-10-13T05:46:01;7.55;;;3.92;;
76065;SDS011;64763;48.928;8.474;2023-10-13T05:48:46;11.13;;;4.00;;
76065;SDS011;64763;48.928;8.474;2023-10-13T05:51:24;6.57;;;3.97;;
76065;SDS011;64763;48.928;8.474;2023-10-13T05:53:58;8.40;;;3.47;;
76065;SDS011;64763;48.928;8.474;2023-10-13T05:59:33;9.90;;;3.95;;
76065;SDS011;64763;48.928;8.474;2023-10-13T06:02:19;8.65;;;3.50;;
76065;SDS011;64763;48.928;8.474;2023-10-13T06:05:13;8.48;;;3.90;;
76065;SDS011;64763;48.928;8.474;2023-10-13T06:07:57;14.15;;;4.30;;
76065;SDS011;64763;48.928;8.474;2023-10-13T06:10:41;9.10;;;4.30;;
76065;SDS011;64763;48.928;8.474;2023-10-13T06:13:25;10.20;;;4.03;;
76065;SDS011;64763;48.928;8.474;2023-10-13T06:18:54;12.23;;;3.90;;
76065;SDS011;64763;48.928;8.474;2023-10-13T06:24:22;7.80;;;4.10;;
76065;SDS011;64763;48.928;8.474;2023-10-13T06:29:50;7.95;;;3.85;;
76065;SDS011;64763;48.928;8.474;2023-10-13T06:32:15;6.55;;;3.78;;
76065;SDS011;64763;48.928;8.474;2023-10-13T06:34:41;8.32;;;3.70;;
76065;SDS011;64763;48.928;8.474;2023-10-13T06:37:13;6.00;;;3.88;;
76065;SDS011;64763;48.928;8.474;2023-10-13T06:40:10;9.00;;;4.25;;
76065;SDS011;64763;48.928;8.474;2023-10-13T06:42:54;9.88;;;3.95;;
76065;SDS011;64763;48.928;8.474;2023-10-13T06:45:49;6.78;;;3.33;;
76065;SDS011;64763;48.928;8.474;2023-10-13T06:48:27;7.28;;;3.80;;
76065;SDS011;64763;48.928;8.474;2023-10-13T06:50:52;6.70;;;3.40;;
76065;SDS011;64763;48.928;8.474;2023-10-13T06:53:20;8.45;;;3.85;;
76065;SDS011;64763;48.928;8.474;2023-10-13T06:55:46;9.85;;;3.90;;
76065;SDS011;64763;48.928;8.474;2023-10-13T06:58:13;7.65;;;4.15;;
76065;SDS011;64763;48.928;8.474;2023-10-13T07:00:42;8.77;;;4.30;;
76065;SDS011;64763;48.928;8.474;2023-10-13T07:03:18;7.15;;;3.70;;
76065;SDS011;64763;48.928;8.474;2023-10-13T07:05:47;7.97;;;4.63;;
76065;SDS011;64763;48.928;8.474;2023-10-13T07:08:12;8.88;;;4.15;;
76065;SDS011;64763;48.928;8.474;2023-10-13T07:10:49;10.07;;;4.45;;
76065;SDS011;64763;48.928;8.474;2023-10-13T07:13:31;6.20;;;4.00;;
76065;SDS011;64763;48.928;8.474;2023-10-13T07:16:01;8.50;;;4.35;;
76065;SDS011;64763;48.928;8.474;2023-10-13T07:18:32;8.00;;;4.25;;
76065;SDS011;64763;48.928;8.474;2023-10-13T07:21:04;7.53;;;4.05;;
76065;SDS011;64763;48.928;8.474;2023-10-13T07:23:35;7.20;;;3.88;;
76065;SDS011;64763;48.928;8.474;2023-10-13T07:26:01;9.05;;;4.50;;
76065;SDS011;64763;48.928;8.474;2023-10-13T07:28:29;12.75;;;5.63;;
76065;SDS011;64763;48.928;8.474;2023-10-13T07:31:04;8.38;;;3.80;;
76065;SDS011;64763;48.928;8.474;2023-10-13T07:33:30;8.95;;;4.35;;
76065;SDS011;64763;48.928;8.474;2023-10-13T07:36:03;14.40;;;4.50;;
76065;SDS011;64763;48.928;8.474;2023-10-13T07:38:40;9.63;;;4.25;;
76065;SDS011;64763;48.928;8.474;2023-10-13T07:41:13;6.82;;;4.00;;
76065;SDS011;64763;48.928;8.474;2023-10-13T07:43:41;16.58;;;4.88;;
76065;SDS011;64763;48.928;8.474;2023-10-13T07:46:06;8.05;;;3.90;;
76065;SDS011;64763;48.928;8.474;2023-10-13T07:48:35;7.55;;;3.55;;
76065;SDS011;64763;48.928;8.474;2023-10-13T07:51:02;12.57;;;3.70;;
76065;SDS011;64763;48.928;8.474;2023-10-13T07:53:30;9.27;;;3.85;;
76065;SDS011;64763;48.928;8.474;2023-10-13T07:56:05;10.52;;;3.88;;
76065;SDS011;64763;48.928;8.474;2023-10-13T07:58:34;12.88;;;4.38;;
76065;SDS011;64763;48.928;8.474;2023-10-13T08:01:11;10.82;;;4.40;;
76065;SDS011;64763;48.928;8.474;2023-10-13T08:03:42;14.13;;;4.70;;
76065;SDS011;64763;48.928;8.474;2023-10-13T08:06:14;10.48;;;4.20;;
76065;SDS011;64763;48.928;8.474;2023-10-13T08:08:40;8.95;;;4.38;;
76065;SDS011;64763;48.928;8.474;2023-10-13T08:11:12;9.27;;;4.30;;
76065;SDS011;64763;48.928;8.474;2023-10-13T08:13:58;8.60;;;3.97;;
76065;SDS011;64763;48.928;8.474;2023-10-13T08:16:28;10.05;;;4.45;;
76065;SDS011;64763;48.928;8.474;2023-10-13T08:19:15;10.88;;;4.68;;
76065;SDS011;64763;48.928;8.474;2023-10-13T08:21:45;10.98;;;4.25;;
76065;SDS011;64763;48.928;8.474;2023-10-13T08:24:17;8.35;;;4.15;;
76065;SDS011;64763;48.928;8.474;2023-10-13T08:26:51;8.20;;;3.80;;
76065;SDS011;64763;48.928;8.474;2023-10-13T08:29:32;6.18;;;3.30;;
76065;SDS011;64763;48.928;8.474;2023-10-13T08:32:16;6.63;;;3.72;;
76065;SDS011;64763;48.928;8.474;2023-10-13T08:34:50;7.70;;;4.18;;
76065;SDS011;64763;48.928;8.474;2023-10-13T08:37:18;20.33;;;5.55;;
76065;SDS011;64763;48.928;8.474;2023-10-13T08:39:47;4.90;;;3.08;;
76065;SDS011;64763;48.928;8.474;2023-10-13T08:42:34;6.95;;;3.10;;
76065;SDS011;64763;48.928;8.474;2023-10-13T08:45:13;9.65;;;3.85;;
76065;SDS011;64763;48.928;8.474;2023-10-13T08:47:48;9.52;;;4.05;;
76065;SDS011;64763;48.928;8.474;2023-10-13T08:50:22;12.43;;;3.85;;
76065;SDS011;64763;48.928;8.474;2023-10-13T08:53:13;5.43;;;3.42;;
76065;SDS011;64763;48.928;8.474;2023-10-13T08:58:35;8.10;;;3.55;;
76065;SDS011;64763;48.928;8.474;2023-10-13T09:01:38;5.63;;;2.90;;
76065;SDS011;64763;48.928;8.474;2023-10-13T09:04:22;8.23;;;3.50;;
76065;SDS011;64763;48.928;8.474;2023-10-13T09:09:23;6.57;;;3.28;;
76065;SDS011;64763;48.928;8.474;2023-10-13T09:14:44;8.38;;;3.45;;
76065;SDS011;64763;48.928;8.474;2023-10-13T09:17:23;5.95;;;3.30;;
76065;SDS011;64763;48.928;8.474;2023-10-13T09:19:58;6.88;;;3.15;;
76065;SDS011;64763;48.928;8.474;2023-10-13T09:22:25;6.95;;;3.17;;
76065;SDS011;64763;48.928;8.474;2023-10-13T09:25:01;7.95;;;3.40;;
76065;SDS011;64763;48.928;8.474;2023-10-13T09:27:29;10.73;;;3.28;;
76065;SDS011;64763;48.928;8.474;2023-10-13T09:30:04;6.43;;;2.60;;
76065;SDS011;64763;48.928;8.474;2023-10-13T09:32:43;6.78;;;3.05;;
76065;SDS011;64763;48.928;8.474;2023-10-13T09:35:16;6.72;;;2.90;;
76065;SDS011;64763;48.928;8.474;2023-10-13T09:37:44;8.95;;;3.05;;
76065;SDS011;64763;48.928;8.474;2023-10-13T09:40:12;4.88;;;2.50;;
76065;SDS011;64763;48.928;8.474;2023-10-13T09:42:58;5.50;;;2.80;;
76065;SDS011;64763;48.928;8.474;2023-10-13T09:45:33;7.15;;;3.17;;
76065;SDS011;64763;48.928;8.474;2023-10-13T09:48:03;8.57;;;3.20;;
76065;SDS011;64763;48.928;8.474;2023-10-13T09:50:41;6.00;;;3.25;;
76065;SDS011;64763;48.928;8.474;2023-10-13T09:53:09;9.13;;;2.92;;
76065;SDS011;64763;48.928;8.474;2023-10-13T09:55:38;5.43;;;2.83;;
76065;SDS011;64763;48.928;8.474;2023-10-13T09:58:10;4.60;;;2.65;;
76065;SDS011;64763;48.928;8.474;2023-10-13T10:00:48;7.53;;;3.05;;
76065;SDS011;64763;48.928;8.474;2023-10-13T10:03:23;6.38;;;3.63;;
76065;SDS011;64763;48.928;8.474;2023-10-13T10:06:04;6.22;;;3.03;;
76065;SDS011;64763;48.928;8.474;2023-10-13T10:08:31;6.50;;;3.28;;
76065;SDS011;64763;48.928;8.474;2023-10-13T10:11:16;7.32;;;3.30;;
76065;SDS011;64763;48.928;8.474;2023-10-13T10:16:27;7.13;;;3.00;;
76065;SDS011;64763;48.928;8.474;2023-10-13T10:19:01;10.13;;;3.22;;
76065;SDS011;64763;48.928;8.474;2023-10-13T10:23:58;5.82;;;2.67;;
76065;SDS011;64763;48.928;8.474;2023-10-13T10:26:24;8.10;;;3.58;;
76065;SDS011;64763;48.928;8.474;2023-10-13T10:28:50;11.15;;;2.95;;
76065;SDS011;64763;48.928;8.474;2023-10-13T10:31:15;6.50;;;2.88;;
76065;SDS011;64763;48.928;8.474;2023-10-13T10:33:45;6.68;;;2.67;;
76065;SDS011;64763;48.928;8.474;2023-10-13T10:36:15;5.03;;;2.97;;
76065;SDS011;64763;48.928;8.474;2023-10-13T10:38:54;8.20;;;2.70;;
76065;SDS011;64763;48.928;8.474;2023-10-13T10:41:27;5.32;;;2.80;;
76065;SDS011;64763;48.928;8.474;2023-10-13T10:44:20;6.63;;;3.03;;
76065;SDS011;64763;48.928;8.474;2023-10-13T10:46:51;3.67;;;2.42;;
76065;SDS011;64763;48.928;8.474;2023-10-13T10:49:26;6.20;;;2.75;;
76065;SDS011;64763;48.928;8.474;2023-10-13T10:51:58;8.35;;;3.30;;
76065;SDS011;64763;48.928;8.474;2023-10-13T10:54:31;8.05;;;2.80;;
76065;SDS011;64763;48.928;8.474;2023-10-13T10:56:59;7.38;;;3.00;;
76065;SDS011;64763;48.928;8.474;2023-10-13T10:59:42;6.57;;;3.08;;
76065;SDS011;64763;48.928;8.474;2023-10-13T11:02:07;4.93;;;2.80;;
76065;SDS011;64763;48.928;8.474;2023-10-13T11:04:34;6.45;;;2.72;;
76065;SDS011;64763;48.928;8.474;2023-10-13T11:07:05;6.53;;;3.17;;
76065;SDS011;64763;48.928;8.474;2023-10-13T11:09:32;7.20;;;3.50;;
76065;SDS011;64763;48.928;8.474;2023-10-13T11:14:39;5.32;;;2.95;;
76065;SDS011;64763;48.928;8.474;2023-10-13T11:17:05;4.53;;;2.60;;
76065;SDS011;64763;48.928;8.474;2023-10-13T11:19:42;6.07;;;2.70;;
76065;SDS011;64763;48.928;8.474;2023-10-13T11:22:17;7.80;;;2.90;;
76065;SDS011;64763;48.928;8.474;2023-10-13T11:25:03;5.32;;;2.88;;
76065;SDS011;64763;48.928;8.474;2023-10-13T11:27:36;5.15;;;2.90;;
76065;SDS011;64763;48.928;8.474;2023-10-13T11:30:12;6.53;;;2.65;;
76065;SDS011;64763;48.928;8.474;2023-10-13T11:32:39;4.82;;;2.70;;
76065;SDS011;64763;48.928;8.474;2023-10-13T11:35:07;5.30;;;2.80;;
76065;SDS011;64763;48.928;8.474;2023-10-13T11:37:51;5.47;;;2.92;;
76065;SDS011;64763;48.928;8.474;2023-10-13T11:40:37;5.85;;;2.50;;
76065;SDS011;64763;48.928;8.474;2023-10-13T11:43:09;4.70;;;2.50;;
76065;SDS011;64763;48.928;8.474;2023-10-13T11:45:42;5.07;;;2.88;;
76065;SDS011;64763;48.928;8.474;2023-10-13T11:48:26;5.18;;;2.53;;
76065;SDS011;64763;48.928;8.474;2023-10-13T11:51:06;8.75;;;3.25;;
76065;SDS011;64763;48.928;8.474;2023-10-13T11:53:32;6.03;;;2.70;;
76065;SDS011;64763;48.928;8.474;2023-10-13T11:56:01;6.78;;;2.80;;
76065;SDS011;64763;48.928;8.474;2023-10-13T11:58:36;4.50;;;2.15;;
76065;SDS011;64763;48.928;8.474;2023-10-13T12:01:02;8.10;;;2.97;;
76065;SDS011;64763;48.928;8.474;2023-10-13T12:03:37;6.13;;;2.28;;
76065;SDS011;64763;48.928;8.474;2023-10-13T12:06:21;6.10;;;2.97;;
76065;SDS011;64763;48.928;8.474;2023-10-13T12:09:02;6.30;;;3.05;;
76065;SDS011;64763;48.928;8.474;2023-10-13T12:11:41;6.82;;;2.58;;
76065;SDS011;64763;48.928;8.474;2023-10-13T12:14:10;6.55;;;2.85;;
76065;SDS011;64763;48.928;8.474;2023-10-13T12:16:46;6.60;;;2.70;;
76065;SDS011;64763;48.928;8.474;2023-10-13T12:19:16;6.63;;;2.83;;
76065;SDS011;64763;48.928;8.474;2023-10-13T12:21:45;6.88;;;3.03;;
76065;SDS011;64763;48.928;8.474;2023-10-13T12:24:13;6.90;;;3.35;;
76065;SDS011;64763;48.928;8.474;2023-10-13T12:26:50;6.10;;;2.90;;
76065;SDS011;64763;48.928;8.474;2023-10-13T12:29:21;5.75;;;3.00;;
76065;SDS011;64763;48.928;8.474;2023-10-13T12:31:50;4.55;;;2.50;;
76065;SDS011;64763;48.928;8.474;2023-10-13T12:34:30;5.47;;;3.50;;
76065;SDS011;64763;48.928;8.474;2023-10-13T12:37:15;4.55;;;2.55;;
76065;SDS011;64763;48.928;8.474;2023-10-13T12:39:59;5.47;;;2.70;;
76065;SDS011;64763;48.928;8.474;2023-10-13T12:42:43;6.47;;;3.00;;
76065;SDS011;64763;48.928;8.474;2023-10-13T12:45:38;7.05;;;2.70;;
76065;SDS011;64763;48.928;8.474;2023-10-13T12:48:25;9.13;;;2.80;;
76065;SDS011;64763;48.928;8.474;2023-10-13T12:51:09;5.45;;;2.58;;
76065;SDS011;64763;48.928;8.474;2023-10-13T12:54:05;5.88;;;2.50;;
76065;SDS011;64763;48.928;8.474;2023-10-13T12:56:38;8.77;;;2.63;;
76065;SDS011;64763;48.928;8.474;2023-10-13T12:59:07;7.97;;;2.53;;
76065;SDS011;64763;48.928;8.474;2023-10-13T13:01:38;6.53;;;2.80;;
76065;SDS011;64763;48.928;8.474;2023-10-13T13:04:07;6.63;;;2.78;;
76065;SDS011;64763;48.928;8.474;2023-10-13T13:06:37;3.50;;;2.33;;
76065;SDS011;64763;48.928;8.474;2023-10-13T13:09:02;7.15;;;2.60;;
76065;SDS011;64763;48.928;8.474;2023-10-13T13:11:27;5.78;;;2.97;;
76065;SDS011;64763;48.928;8.474;2023-10-13T13:13:56;7.22;;;2.63;;
76065;SDS011;64763;48.928;8.474;2023-10-13T13:16:22;7.97;;;2.85;;
76065;SDS011;64763;48.928;8.474;2023-10-13T13:18:50;6.32;;;3.08;;
76065;SDS011;64763;48.928;8.474;2023-10-13T13:21:15;7.78;;;3.10;;
76065;SDS011;64763;48.928;8.474;2023-10-13T13:23:50;6.55;;;2.90;;
76065;SDS011;64763;48.928;8.474;2023-10-13T13:26:21;4.53;;;2.75;;
76065;SDS011;64763;48.928;8.474;2023-10-13T13:28:47;4.35;;;2.60;;
76065;SDS011;64763;48.928;8.474;2023-10-13T13:31:17;7.85;;;2.85;;
76065;SDS011;64763;48.928;8.474;2023-10-13T13:33:42;6.93;;;2.85;;
76065;SDS011;64763;48.928;8.474;2023-10-13T13:36:11;7.55;;;2.80;;
76065;SDS011;64763;48.928;8.474;2023-10-13T13:38:41;10.30;;;3.88;;
76065;SDS011;64763;48.928;8.474;2023-10-13T13:41:13;4.95;;;2.53;;
76065;SDS011;64763;48.928;8.474;2023-10-13T13:43:45;9.48;;;3.00;;
76065;SDS011;64763;48.928;8.474;2023-10-13T13:46:23;10.20;;;2.90;;
76065;SDS011;64763;48.928;8.474;2023-10-13T13:48:58;5.97;;;2.92;;
76065;SDS011;64763;48.928;8.474;2023-10-13T13:51:25;5.38;;;2.85;;
76065;SDS011;64763;48.928;8.474;2023-10-13T13:53:55;6.57;;;2.97;;
76065;SDS011;64763;48.928;8.474;2023-10-13T13:56:21;7.13;;;3.05;;
76065;SDS011;64763;48.928;8.474;2023-10-13T13:58:47;5.03;;;2.55;;
76065;SDS011;64763;48.928;8.474;2023-10-13T14:01:14;5.05;;;2.75;;
76065;SDS011;64763;48.928;8.474;2023-10-13T14:03:41;6.55;;;3.28;;
76065;SDS011;64763;48.928;8.474;2023-10-13T14:06:13;5.47;;;2.42;;
76065;SDS011;64763;48.928;8.474;2023-10-13T14:08:43;6.60;;;2.67;;
76065;SDS011;64763;48.928;8.474;2023-10-13T14:11:10;5.75;;;2.88;;
76065;SDS011;64763;48.928;8.474;2023-10-13T14:13:39;6.95;;;2.50;;
76065;SDS011;64763;48.928;8.474;2023-10-13T14:16:15;6.03;;;2.88;;
76065;SDS011;64763;48.928;8.474;2023-10-13T14:18:46;7.03;;;2.45;;
76065;SDS011;64763;48.928;8.474;2023-10-13T14:21:12;5.13;;;2.25;;
76065;SDS011;64763;48.928;8.474;2023-10-13T14:23:45;4.90;;;2.80;;
76065;SDS011;64763;48.928;8.474;2023-10-13T14:26:14;7.30;;;2.60;;
76065;SDS011;64763;48.928;8.474;2023-10-13T14:28:40;4.80;;;2.72;;
76065;SDS011;64763;48.928;8.474;2023-10-13T14:31:17;6.18;;;2.50;;
76065;SDS011;64763;48.928;8.474;2023-10-13T14:33:44;5.40;;;2.85;;
76065;SDS011;64763;48.928;8.474;2023-10-13T14:36:11;6.85;;;2.60;;
76065;SDS011;64763;48.928;8.474;2023-10-13T14:38:36;4.60;;;2.35;;
76065;SDS011;64763;48.928;8.474;2023-10-13T14:41:02;5.68;;;2.58;;
76065;SDS011;64763;48.928;8.474;2023-10-13T14:43:27;7.15;;;2.95;;
76065;SDS011;64763;48.928;8.474;2023-10-13T14:45:53;7.80;;;3.05;;
76065;SDS011;64763;48.928;8.474;2023-10-13T14:48:19;4.38;;;2.33;;
76065;SDS011;64763;48.928;8.474;2023-10-13T14:50:44;5.88;;;2.40;;
76065;SDS011;64763;48.928;8.474;2023-10-13T14:53:10;5.45;;;3.10;;
76065;SDS011;64763;48.928;8.474;2023-10-13T14:55:35;5.40;;;2.38;;
76065;SDS011;64763;48.928;8.474;2023-10-13T14:58:04;5.18;;;2.63;;
76065;SDS011;64763;48.928;8.474;2023-10-13T15:00:32;7.70;;;2.25;;
76065;SDS011;64763;48.928;8.474;2023-10-13T15:02:58;4.68;;;2.30;;
76065;SDS011;64763;48.928;8.474;2023-10-13T15:05:26;7.88;;;2.47;;
76065;SDS011;64763;48.928;8.474;2023-10-13T15:07:55;3.28;;;2.10;;
76065;SDS011;64763;48.928;8.474;2023-10-13T15:10:21;4.45;;;2.28;;
76065;SDS011;64763;48.928;8.474;2023-10-13T15:12:46;4.65;;;1.85;;
76065;SDS011;64763;48.928;8.474;2023-10-13T15:15:12;5.22;;;2.67;;
76065;SDS011;64763;48.928;8.474;2023-10-13T15:17:44;5.85;;;2.00;;
76065;SDS011;64763;48.928;8.474;2023-10-13T15:20:13;6.18;;;2.38;;
76065;SDS011;64763;48.928;8.474;2023-10-13T15:22:42;5.97;;;2.00;;
76065;SDS011;64763;48.928;8.474;2023-10-13T15:25:08;4.80;;;2.50;;
76065;SDS011;64763;48.928;8.474;2023-10-13T15:27:52;4.88;;;2.03;;
76065;SDS011;64763;48.928;8.474;2023-10-13T15:30:22;6.80;;;2.20;;
76065;SDS011;64763;48.928;8.474;2023-10-13T15:32:50;6.53;;;2.13;;
76065;SDS011;64763;48.928;8.474;2023-10-13T15:35:17;6.35;;;2.13;;
76065;SDS011;64763;48.928;8.474;2023-10-13T15:37:42;5.97;;;2.20;;
76065;SDS011;64763;48.928;8.474;2023-10-13T15:40:12;5.18;;;2.20;;
76065;SDS011;64763;48.928;8.474;2023-10-13T15:42:41;7.25;;;2.20;;
76065;SDS011;64763;48.928;8.474;2023-10-13T15:45:07;3.53;;;2.20;;
76065;SDS011;64763;48.928;8.474;2023-10-13T15:47:42;6.97;;;2.17;;
76065;SDS011;64763;48.928;8.474;2023-10-13T15:50:11;4.80;;;2.28;;
76065;SDS011;64763;48.928;8.474;2023-10-13T15:52:45;6.43;;;2.38;;
76065;SDS011;64763;48.928;8.474;2023-10-13T15:55:15;5.70;;;2.80;;
76065;SDS011;64763;48.928;8.474;2023-10-13T15:57:42;4.55;;;2.50;;
76065;SDS011;64763;48.928;8.474;2023-10-13T16:00:09;4.40;;;2.60;;
76065;SDS011;64763;48.928;8.474;2023-10-13T16:02:55;6.93;;;2.33;;
76065;SDS011;64763;48.928;8.474;2023-10-13T16:05:30;6.63;;;2.47;;